Grande Abidjan — IBDE — position and weather

sailwx.info

Track history (hours):
 
Tides and Currents Weather Stations Pressure Air Temp Water Temp Dewpoint Dewpoint Depression Visibility Wind Speed Wind Dir Waves Ship Positions

Grande Abidjan

Last reported at 2017-Dec-16 04:41 UTC. Time now 2017-Dec-17 21:54 UTC.
Position N 08°10' W 014°35'.

Length 236 m; draft 10.2 m.

Type: Ship (hazmat cat D). MMSI: 247341700.

Date/timePositionNaut miles runAvg speedWind from/ knotsBaromVisibWave heightAir tempDewpointWater temp
2017-Dec-16 04:41N 08°10' W 014°35'1915.1
2017-Dec-16 03:26N 08°24' W 014°49'2315.1
2017-Dec-16 01:53N 08°39' W 015°07'915.2
2017-Dec-16 01:18N 08°45' W 015°13'615.4
2017-Dec-16 00:56N 08°49' W 015°17'715.3
2017-Dec-16 00:30N 08°53' W 015°22'815.1
2017-Dec-16 00:00N 08°58' W 015°28'815.2
2017-Dec-15 23:30N 09°03' W 015°34'1515.4
2017-Dec-15 22:33N 09°13' W 015°45'115.4
2017-Dec-15 22:30N 09°14' W 015°45'915.4
2017-Dec-15 21:53N 09°20' W 015°52'1215.4
2017-Dec-15 21:08N 09°28' W 016°01'215.3
2017-Dec-15 21:00N 09°29' W 016°03'815.5
2017-Dec-15 20:30N 09°34' W 016°08'815.5
2017-Dec-15 20:00N 09°40' W 016°14'3 5.4
2017-Dec-15 19:28N 09°42' W 016°16'1 1.1
2017-Dec-15 18:49N 09°43' W 016°16'  
2017-Dec-11 20:03N 28°04' W 013°53'115.6
2017-Dec-11 20:00N 28°04' W 013°52'2715.6
2017-Dec-11 18:18N 28°28' W 013°38'815.0
2017-Dec-11 17:47N 28°35' W 013°34'615.5
2017-Dec-11 17:25N 28°40' W 013°31'715.4
2017-Dec-11 16:59N 28°45' W 013°27'815.2
2017-Dec-11 16:30N 28°52' W 013°23'815.2
2017-Dec-11 15:59N 28°59' W 013°19'815.5
2017-Dec-11 15:29N 29°06' W 013°15'  
2017-Dec-09 03:24N 38°05' W 009°59'716.6
2017-Dec-09 02:59N 38°12' W 010°01'816.6
2017-Dec-09 02:30N 38°19' W 010°02'816.7
2017-Dec-09 02:00N 38°28' W 010°04'816.8
2017-Dec-09 01:30N 38°36' W 010°05'816.5
2017-Dec-09 01:00N 38°44' W 010°06'816.6
2017-Dec-09 00:30N 38°52' W 010°07'817.0
2017-Dec-09 00:00N 39°01' W 010°07'917.4
2017-Dec-08 23:30N 39°10' W 010°07'817.0
2017-Dec-08 23:01N 39°18' W 010°07'816.5
2017-Dec-08 22:30N 39°26' W 010°07'916.8
2017-Dec-08 22:00N 39°35' W 010°07'45216.0
2017-Dec-07 17:45N 46°51' W 007°25'1015.9
2017-Dec-07 17:06N 47°00' W 007°18'215.9
2017-Dec-07 16:57N 47°02' W 007°16'1216.1
2017-Dec-07 16:13N 47°13' W 007°08'4415.6
2017-Dec-07 13:25N 47°51' W 006°37'1015.8
2017-Dec-07 12:47N 47°60' W 006°30'16113.2
2017-Dec-07 00:33N 49°47' W 003°26'113.7
2017-Dec-07 00:29N 49°47' W 003°25'713.4
2017-Dec-07 00:00N 49°50' W 003°16'712.8
2017-Dec-06 23:29N 49°54' W 003°07'612.3
2017-Dec-06 23:00N 49°57' W 002°59'611.6
2017-Dec-06 22:30N 49°60' W 002°51'611.1
2017-Dec-06 22:00N 50°01' W 002°43'610.8
2017-Dec-06 21:29N 50°03' W 002°35'610.5
2017-Dec-06 20:57N 50°04' W 002°26'  
Track history (hours):
 
Tides and Currents Weather Stations Pressure Air Temp Water Temp Dewpoint Dewpoint Depression Visibility Wind Speed Wind Dir Waves Ship Positions

Grande Abidjan

Last reported at 2017-Dec-16 04:41 UTC. Time now 2017-Dec-17 21:54 UTC.
Position N 08°10' W 014°35'.

Length 236 m; draft 10.2 m.

Type: Ship (hazmat cat D). MMSI: 247341700.

Date/timePositionNaut miles runAvg speedWind from/ knotsBaromVisibWave heightAir tempDewpointWater temp
2017-Dec-16 04:41N 08°10' W 014°35'1915.1
2017-Dec-16 03:26N 08°24' W 014°49'2315.1
2017-Dec-16 01:53N 08°39' W 015°07'915.2
2017-Dec-16 01:18N 08°45' W 015°13'615.4
2017-Dec-16 00:56N 08°49' W 015°17'715.3
2017-Dec-16 00:30N 08°53' W 015°22'815.1
2017-Dec-16 00:00N 08°58' W 015°28'815.2
2017-Dec-15 23:30N 09°03' W 015°34'1515.4
2017-Dec-15 22:33N 09°13' W 015°45'115.4
2017-Dec-15 22:30N 09°14' W 015°45'915.4
2017-Dec-15 21:53N 09°20' W 015°52'1215.4
2017-Dec-15 21:08N 09°28' W 016°01'215.3
2017-Dec-15 21:00N 09°29' W 016°03'815.5
2017-Dec-15 20:30N 09°34' W 016°08'815.5
2017-Dec-15 20:00N 09°40' W 016°14'3 5.4
2017-Dec-15 19:28N 09°42' W 016°16'1 1.1
2017-Dec-15 18:49N 09°43' W 016°16'  
2017-Dec-11 20:03N 28°04' W 013°53'115.6
2017-Dec-11 20:00N 28°04' W 013°52'2715.6
2017-Dec-11 18:18N 28°28' W 013°38'815.0
2017-Dec-11 17:47N 28°35' W 013°34'615.5
2017-Dec-11 17:25N 28°40' W 013°31'715.4
2017-Dec-11 16:59N 28°45' W 013°27'815.2
2017-Dec-11 16:30N 28°52' W 013°23'815.2
2017-Dec-11 15:59N 28°59' W 013°19'815.5
2017-Dec-11 15:29N 29°06' W 013°15'  
2017-Dec-09 03:24N 38°05' W 009°59'716.6
2017-Dec-09 02:59N 38°12' W 010°01'816.6
2017-Dec-09 02:30N 38°19' W 010°02'816.7
2017-Dec-09 02:00N 38°28' W 010°04'816.8
2017-Dec-09 01:30N 38°36' W 010°05'816.5
2017-Dec-09 01:00N 38°44' W 010°06'816.6
2017-Dec-09 00:30N 38°52' W 010°07'817.0
2017-Dec-09 00:00N 39°01' W 010°07'917.4
2017-Dec-08 23:30N 39°10' W 010°07'817.0
2017-Dec-08 23:01N 39°18' W 010°07'816.5
2017-Dec-08 22:30N 39°26' W 010°07'916.8
2017-Dec-08 22:00N 39°35' W 010°07'45216.0
2017-Dec-07 17:45N 46°51' W 007°25'1015.9
2017-Dec-07 17:06N 47°00' W 007°18'215.9
2017-Dec-07 16:57N 47°02' W 007°16'1216.1
2017-Dec-07 16:13N 47°13' W 007°08'4415.6
2017-Dec-07 13:25N 47°51' W 006°37'1015.8
2017-Dec-07 12:47N 47°60' W 006°30'16113.2
2017-Dec-07 00:33N 49°47' W 003°26'113.7
2017-Dec-07 00:29N 49°47' W 003°25'713.4
2017-Dec-07 00:00N 49°50' W 003°16'712.8
2017-Dec-06 23:29N 49°54' W 003°07'612.3
2017-Dec-06 23:00N 49°57' W 002°59'611.6
2017-Dec-06 22:30N 49°60' W 002°51'611.1
2017-Dec-06 22:00N 50°01' W 002°43'610.8
2017-Dec-06 21:29N 50°03' W 002°35'610.5
2017-Dec-06 20:57N 50°04' W 002°26'  

Dump ship's entire track history